createdAt,value
2023-06-29T00:00:28.127Z,5.13
2023-06-29T00:05:30.039Z,4.45
2023-06-29T00:10:31.959Z,4.65
2023-06-29T00:15:33.786Z,5.00
2023-06-29T00:20:36.914Z,5.03
2023-06-29T00:25:40.388Z,4.55
2023-06-29T00:30:42.432Z,5.15
2023-06-29T00:35:44.659Z,5.32
2023-06-29T00:40:48.356Z,4.32
2023-06-29T00:45:50.311Z,6.00
2023-06-29T00:50:52.285Z,4.68
2023-06-29T00:55:54.714Z,5.45
2023-06-29T01:00:57.403Z,6.00
2023-06-29T01:06:05.718Z,4.40
2023-06-29T01:11:08.712Z,4.88
2023-06-29T01:16:13.091Z,4.65
2023-06-29T01:21:17.829Z,4.72
2023-06-29T01:26:19.865Z,4.38
2023-06-29T01:31:21.797Z,4.15
2023-06-29T01:36:33.117Z,4.88
2023-06-29T01:41:41.295Z,5.10
2023-06-29T01:46:44.959Z,4.25
2023-06-29T01:51:46.970Z,3.97
2023-06-29T01:56:48.772Z,4.97
2023-06-29T02:01:50.847Z,4.53
2023-06-29T02:06:52.797Z,4.43
2023-06-29T02:11:54.731Z,4.80
2023-06-29T02:16:57.017Z,4.38
2023-06-29T02:21:58.948Z,5.15
2023-06-29T02:27:00.790Z,4.32
2023-06-29T02:32:02.722Z,4.82
2023-06-29T02:37:04.757Z,4.10
2023-06-29T02:42:06.751Z,4.28
2023-06-29T02:47:08.738Z,4.70
2023-06-29T02:52:10.805Z,4.65
2023-06-29T02:57:12.812Z,4.40
2023-06-29T03:02:14.743Z,4.60
2023-06-29T03:07:16.801Z,5.32
2023-06-29T03:12:21.984Z,7.07
2023-06-29T03:17:25.980Z,6.47
2023-06-29T03:22:28.464Z,6.05
2023-06-29T03:27:30.340Z,6.35
2023-06-29T03:32:32.242Z,5.38
2023-06-29T03:37:34.134Z,6.47
2023-06-29T03:42:35.965Z,5.97
2023-06-29T03:47:37.987Z,5.63
2023-06-29T03:52:39.916Z,5.50
2023-06-29T03:57:41.874Z,5.65
2023-06-29T04:02:43.881Z,5.80
2023-06-29T04:07:45.752Z,6.70
2023-06-29T04:12:47.660Z,6.20
2023-06-29T04:17:49.697Z,6.18
2023-06-29T04:22:51.711Z,5.78
2023-06-29T04:27:54.002Z,6.00
2023-06-29T04:32:57.688Z,6.05
2023-06-29T04:37:59.731Z,5.47
2023-06-29T04:43:01.798Z,5.60
2023-06-29T04:48:03.669Z,4.78
2023-06-29T04:53:13.765Z,5.68
2023-06-29T04:58:15.678Z,5.40
2023-06-29T05:03:17.827Z,5.45
2023-06-29T05:08:20.269Z,5.10
2023-06-29T05:13:22.156Z,5.07
2023-06-29T05:18:24.195Z,5.45
2023-06-29T05:23:26.050Z,5.00
2023-06-29T05:28:28.238Z,5.40
2023-06-29T05:33:30.297Z,5.18
2023-06-29T05:38:35.391Z,4.90
2023-06-29T05:43:37.471Z,4.85
2023-06-29T05:48:39.360Z,5.50
2023-06-29T05:53:41.293Z,5.07
2023-06-29T05:58:43.144Z,4.70
2023-06-29T06:03:45.213Z,4.55
2023-06-29T06:08:47.295Z,6.72
2023-06-29T06:13:49.289Z,6.65
2023-06-29T06:18:51.414Z,7.13
2023-06-29T06:23:54.634Z,6.45
2023-06-29T06:28:56.734Z,7.22
2023-06-29T06:33:58.760Z,8.27
2023-06-29T06:39:00.646Z,8.95
2023-06-29T06:44:02.673Z,9.15
2023-06-29T06:49:04.782Z,8.65
2023-06-29T06:54:06.644Z,9.77
2023-06-29T06:59:09.247Z,8.15
2023-06-29T07:04:12.392Z,9.70
2023-06-29T07:09:14.662Z,8.73
2023-06-29T07:14:20.685Z,11.57
2023-06-29T07:24:28.038Z,11.57
2023-06-29T07:29:31.820Z,11.40
2023-06-29T07:34:34.080Z,12.23
2023-06-29T07:39:36.860Z,11.23
2023-06-29T07:44:38.876Z,9.40
2023-06-29T07:49:40.842Z,10.43
2023-06-29T07:54:43.402Z,10.82
2023-06-29T07:59:45.271Z,10.45
2023-06-29T08:09:52.114Z,10.27
2023-06-29T08:14:54.442Z,10.52
2023-06-29T08:19:56.430Z,13.10
2023-06-29T08:24:58.414Z,11.40
2023-06-29T08:30:00.300Z,11.35
2023-06-29T08:35:02.252Z,11.75
2023-06-29T08:40:06.342Z,10.30
2023-06-29T08:45:08.511Z,10.27
2023-06-29T08:50:11.906Z,9.88
2023-06-29T08:55:13.939Z,10.13
2023-06-29T09:00:16.992Z,9.65
2023-06-29T09:05:18.891Z,10.52
2023-06-29T09:10:20.992Z,11.07
2023-06-29T09:15:27.475Z,10.98
2023-06-29T09:20:35.515Z,11.13
2023-06-29T09:25:40.182Z,10.05
2023-06-29T09:30:43.345Z,10.38
2023-06-29T09:35:52.136Z,9.88
2023-06-29T09:40:55.607Z,10.85
2023-06-29T09:46:08.862Z,9.70
2023-06-29T09:51:11.171Z,9.25
2023-06-29T09:56:14.780Z,11.15
2023-06-29T10:01:19.565Z,10.32
2023-06-29T10:06:37.816Z,9.95
2023-06-29T10:11:43.267Z,10.35
2023-06-29T10:16:51.983Z,10.00
2023-06-29T10:22:00.693Z,9.57
2023-06-29T10:27:04.024Z,10.80
2023-06-29T10:32:06.497Z,10.75
2023-06-29T10:37:08.602Z,10.13
2023-06-29T10:42:39.506Z,9.00
2023-06-29T10:47:42.318Z,10.50
2023-06-29T10:52:45.062Z,8.88
2023-06-29T10:57:48.156Z,8.82
2023-06-29T11:02:50.757Z,9.73
2023-06-29T11:07:54.068Z,8.88
2023-06-29T11:12:56.766Z,8.95
2023-06-29T11:18:04.328Z,7.50
2023-06-29T11:23:08.645Z,7.95
2023-06-29T11:28:10.637Z,8.75
2023-06-29T11:33:28.600Z,8.55
2023-06-29T11:38:35.151Z,8.10
2023-06-29T11:43:37.628Z,7.82
2023-06-29T11:48:39.557Z,8.35
2023-06-29T11:53:41.486Z,9.13
2023-06-29T11:58:44.336Z,7.75
2023-06-29T12:03:48.523Z,9.18
2023-06-29T12:08:53.625Z,7.15
2023-06-29T12:13:56.799Z,7.82
2023-06-29T12:18:59.902Z,7.03
2023-06-29T12:24:04.645Z,8.32
2023-06-29T12:29:06.557Z,9.90
2023-06-29T12:34:08.927Z,9.27
2023-06-29T12:39:10.777Z,10.10
2023-06-29T12:44:12.798Z,9.70
2023-06-29T12:49:14.850Z,9.50
2023-06-29T12:54:16.956Z,10.48
2023-06-29T12:59:18.893Z,11.07
2023-06-29T13:04:21.217Z,10.95
2023-06-29T13:09:23.418Z,12.05
2023-06-29T13:14:25.297Z,11.65
2023-06-29T13:19:28.662Z,11.48
2023-06-29T13:24:30.676Z,12.30
2023-06-29T13:29:33.422Z,12.10
2023-06-29T13:34:35.612Z,12.10
2023-06-29T13:39:39.043Z,13.48
2023-06-29T13:44:41.152Z,13.77
2023-06-29T13:49:43.167Z,11.95
2023-06-29T13:54:45.248Z,13.48
2023-06-29T13:59:48.414Z,13.02
2023-06-29T14:04:50.244Z,12.82
2023-06-29T14:09:52.132Z,14.00
2023-06-29T14:14:54.055Z,12.55
2023-06-29T14:19:56.876Z,14.77
2023-06-29T14:24:58.668Z,13.93
2023-06-29T14:30:00.597Z,14.25
2023-06-29T14:35:02.752Z,13.60
2023-06-29T14:40:07.070Z,14.88
2023-06-29T14:45:09.490Z,15.25
2023-06-29T14:50:11.939Z,14.30
2023-06-29T14:55:13.928Z,15.73
2023-06-29T15:00:16.988Z,15.13
2023-06-29T15:05:19.098Z,15.23
2023-06-29T15:10:21.150Z,14.40
2023-06-29T15:15:23.720Z,15.10
2023-06-29T15:20:25.811Z,14.23
2023-06-29T15:25:27.961Z,15.43
2023-06-29T15:30:30.265Z,15.15
2023-06-29T15:35:32.845Z,14.18
2023-06-29T15:40:34.928Z,16.08
2023-06-29T15:45:38.445Z,16.45
2023-06-29T15:50:40.315Z,15.95
2023-06-29T15:55:42.272Z,15.20
2023-06-29T16:00:44.256Z,16.80
2023-06-29T16:05:46.552Z,16.42
2023-06-29T16:10:48.700Z,17.75
2023-06-29T16:15:50.561Z,17.83
2023-06-29T16:20:52.971Z,18.17
2023-06-29T16:25:54.966Z,19.52
2023-06-29T16:30:56.984Z,17.83
2023-06-29T16:35:59.154Z,18.80
2023-06-29T16:41:01.109Z,17.85
2023-06-29T16:46:03.786Z,18.17
2023-06-29T16:51:05.843Z,19.52
2023-06-29T16:56:07.775Z,17.02
2023-06-29T17:01:10.776Z,18.35
2023-06-29T17:06:12.931Z,17.45
2023-06-29T17:11:15.106Z,17.58
2023-06-29T17:16:17.255Z,18.00
2023-06-29T17:21:21.120Z,17.40
2023-06-29T17:26:24.357Z,17.33
2023-06-29T17:31:27.045Z,18.48
2023-06-29T17:36:28.915Z,16.75
2023-06-29T17:41:30.703Z,18.42
2023-06-29T17:46:34.299Z,17.08
2023-06-29T17:51:36.524Z,19.50
2023-06-29T17:56:38.373Z,17.85
2023-06-29T18:01:40.650Z,18.73
2023-06-29T18:06:42.705Z,18.08
2023-06-29T18:11:44.839Z,18.17
2023-06-29T18:16:46.999Z,18.00
2023-06-29T18:21:49.064Z,18.27
2023-06-29T18:26:51.018Z,18.92
2023-06-29T18:31:53.815Z,18.77
2023-06-29T18:36:56.588Z,18.20
2023-06-29T18:41:58.792Z,19.02
2023-06-29T18:47:15.077Z,16.95
2023-06-29T18:52:17.230Z,18.67
2023-06-29T18:57:19.315Z,20.23
2023-06-29T19:02:21.473Z,19.55
2023-06-29T19:07:23.529Z,19.02
2023-06-29T19:12:25.573Z,18.83
2023-06-29T19:17:29.481Z,16.52
2023-06-29T19:22:31.701Z,17.75
2023-06-29T19:27:34.169Z,17.95
2023-06-29T19:32:36.417Z,17.20
2023-06-29T19:37:38.335Z,15.95
2023-06-29T19:42:40.527Z,16.40
2023-06-29T19:47:44.270Z,14.50
2023-06-29T19:52:46.305Z,16.10
2023-06-29T19:57:48.130Z,15.65
2023-06-29T20:02:50.117Z,16.02
2023-06-29T20:07:52.117Z,12.52
2023-06-29T20:12:54.145Z,12.07
2023-06-29T20:17:56.061Z,12.07
2023-06-29T20:22:58.243Z,9.57
2023-06-29T20:28:00.274Z,8.45
2023-06-29T20:33:02.448Z,8.52
2023-06-29T20:38:04.450Z,6.47
2023-06-29T20:43:06.517Z,7.53
2023-06-29T20:48:08.593Z,6.80
2023-06-29T20:53:10.788Z,5.43
2023-06-29T20:58:12.723Z,5.95
2023-06-29T21:03:15.778Z,4.35
2023-06-29T21:08:17.782Z,3.38
2023-06-29T21:13:19.836Z,3.13
2023-06-29T21:18:21.968Z,2.58
2023-06-29T21:23:24.042Z,2.58
2023-06-29T21:28:26.480Z,2.55
2023-06-29T21:33:28.873Z,2.35
2023-06-29T21:38:32.181Z,2.25
2023-06-29T21:43:34.483Z,2.63
2023-06-29T21:48:37.271Z,2.45
2023-06-29T21:53:39.261Z,2.38
2023-06-29T21:58:41.108Z,2.45
2023-06-29T22:03:43.170Z,2.80
2023-06-29T22:08:45.020Z,2.85
2023-06-29T22:13:47.479Z,2.17
2023-06-29T22:18:52.926Z,2.50
2023-06-29T22:23:56.292Z,1.92
2023-06-29T22:28:58.103Z,1.92
2023-06-29T22:34:00.080Z,1.60
2023-06-29T22:39:02.762Z,1.42
2023-06-29T22:44:05.108Z,1.50
2023-06-29T22:49:07.324Z,1.48
2023-06-29T22:54:10.288Z,1.10
2023-06-29T22:59:13.135Z,1.10
2023-06-29T23:04:15.392Z,1.02
2023-06-29T23:09:17.555Z,0.90
2023-06-29T23:14:19.867Z,0.93
2023-06-29T23:19:22.245Z,0.90
2023-06-29T23:24:24.334Z,0.60
2023-06-29T23:29:26.307Z,0.70
2023-06-29T23:34:28.328Z,0.90
2023-06-29T23:39:36.006Z,0.73
2023-06-29T23:44:42.002Z,1.05
2023-06-29T23:49:44.635Z,0.95
2023-06-29T23:54:46.559Z,0.77
2023-06-29T23:59:48.594Z,1.10
